sensor_id;sensor_type;location;lat;lon;timestamp;temperature;humidity
5494;DHT22;2769;49.864;8.656;2022-09-12T00:01:27;19.00;99.90
5494;DHT22;2769;49.864;8.656;2022-09-12T00:03:59;19.00;99.90
5494;DHT22;2769;49.864;8.656;2022-09-12T00:06:29;18.90;99.90
5494;DHT22;2769;49.864;8.656;2022-09-12T00:09:01;19.00;99.90
5494;DHT22;2769;49.864;8.656;2022-09-12T00:11:30;19.10;99.90
5494;DHT22;2769;49.864;8.656;2022-09-12T00:14:00;19.10;99.90
5494;DHT22;2769;49.864;8.656;2022-09-12T00:16:30;19.10;99.90
5494;DHT22;2769;49.864;8.656;2022-09-12T00:18:59;19.00;99.90
5494;DHT22;2769;49.864;8.656;2022-09-12T00:21:28;19.10;99.90
5494;DHT22;2769;49.864;8.656;2022-09-12T00:23:57;19.00;99.90
5494;DHT22;2769;49.864;8.656;2022-09-12T00:26:25;18.90;99.90
5494;DHT22;2769;49.864;8.656;2022-09-12T00:28:53;18.60;99.90
5494;DHT22;2769;49.864;8.656;2022-09-12T00:31:24;18.50;99.90
5494;DHT22;2769;49.864;8.656;2022-09-12T00:33:55;18.50;99.90
5494;DHT22;2769;49.864;8.656;2022-09-12T00:36:24;18.60;99.90
5494;DHT22;2769;49.864;8.656;2022-09-12T00:38:53;18.70;99.90
5494;DHT22;2769;49.864;8.656;2022-09-12T00:41:24;18.60;99.90
5494;DHT22;2769;49.864;8.656;2022-09-12T00:43:54;18.50;99.90
5494;DHT22;2769;49.864;8.656;2022-09-12T00:46:34;18.70;99.90
5494;DHT22;2769;49.864;8.656;2022-09-12T00:49:07;18.70;99.90
5494;DHT22;2769;49.864;8.656;2022-09-12T00:51:39;18.80;99.90
5494;DHT22;2769;49.864;8.656;2022-09-12T00:54:11;18.80;99.90
5494;DHT22;2769;49.864;8.656;2022-09-12T00:56:43;18.70;99.90
5494;DHT22;2769;49.864;8.656;2022-09-12T00:59:15;18.60;99.90
5494;DHT22;2769;49.864;8.656;2022-09-12T01:01:47;18.50;99.90
5494;DHT22;2769;49.864;8.656;2022-09-12T01:04:19;18.50;99.90
5494;DHT22;2769;49.864;8.656;2022-09-12T01:06:49;18.50;99.90
5494;DHT22;2769;49.864;8.656;2022-09-12T01:09:20;17.90;99.90
5494;DHT22;2769;49.864;8.656;2022-09-12T01:11:51;18.40;99.90
5494;DHT22;2769;49.864;8.656;2022-09-12T01:14:20;18.40;99.90
5494;DHT22;2769;49.864;8.656;2022-09-12T01:16:49;18.50;99.90
5494;DHT22;2769;49.864;8.656;2022-09-12T01:22:37;18.30;99.90
5494;DHT22;2769;49.864;8.656;2022-09-12T01:25:21;17.80;99.90
5494;DHT22;2769;49.864;8.656;2022-09-12T01:28:11;17.60;99.90
5494;DHT22;2769;49.864;8.656;2022-09-12T01:30:44;17.40;99.90
5494;DHT22;2769;49.864;8.656;2022-09-12T01:33:32;17.20;99.90
5494;DHT22;2769;49.864;8.656;2022-09-12T01:36:22;17.00;99.90
5494;DHT22;2769;49.864;8.656;2022-09-12T01:38:59;17.00;99.90
5494;DHT22;2769;49.864;8.656;2022-09-12T01:41:30;17.20;99.90
5494;DHT22;2769;49.864;8.656;2022-09-12T01:44:10;17.50;99.90
5494;DHT22;2769;49.864;8.656;2022-09-12T01:46:46;17.60;99.90
5494;DHT22;2769;49.864;8.656;2022-09-12T01:49:21;17.80;99.90
5494;DHT22;2769;49.864;8.656;2022-09-12T01:51:56;17.80;99.90
5494;DHT22;2769;49.864;8.656;2022-09-12T01:54:29;17.90;99.90
5494;DHT22;2769;49.864;8.656;2022-09-12T01:57:02;17.90;99.90
5494;DHT22;2769;49.864;8.656;2022-09-12T01:59:36;18.30;99.90
5494;DHT22;2769;49.864;8.656;2022-09-12T02:02:10;18.30;99.90
5494;DHT22;2769;49.864;8.656;2022-09-12T02:04:42;17.80;99.90
5494;DHT22;2769;49.864;8.656;2022-09-12T02:07:18;18.40;99.90
5494;DHT22;2769;49.864;8.656;2022-09-12T02:09:53;17.90;99.90
5494;DHT22;2769;49.864;8.656;2022-09-12T02:12:25;17.90;99.90
5494;DHT22;2769;49.864;8.656;2022-09-12T02:14:58;17.90;99.90
5494;DHT22;2769;49.864;8.656;2022-09-12T02:17:34;17.80;99.90
5494;DHT22;2769;49.864;8.656;2022-09-12T02:20:07;17.90;99.90
5494;DHT22;2769;49.864;8.656;2022-09-12T02:22:57;17.80;99.90
5494;DHT22;2769;49.864;8.656;2022-09-12T02:25:28;17.80;99.90
5494;DHT22;2769;49.864;8.656;2022-09-12T02:28:02;17.90;99.90
5494;DHT22;2769;49.864;8.656;2022-09-12T02:30:38;18.40;99.90
5494;DHT22;2769;49.864;8.656;2022-09-12T02:33:16;17.80;99.90
5494;DHT22;2769;49.864;8.656;2022-09-12T02:35:50;17.80;99.90
5494;DHT22;2769;49.864;8.656;2022-09-12T02:38:23;17.80;99.90
5494;DHT22;2769;49.864;8.656;2022-09-12T02:40:52;17.60;99.90
5494;DHT22;2769;49.864;8.656;2022-09-12T02:43:20;17.70;99.90
5494;DHT22;2769;49.864;8.656;2022-09-12T02:45:48;17.70;99.90
5494;DHT22;2769;49.864;8.656;2022-09-12T02:48:20;17.60;99.90
5494;DHT22;2769;49.864;8.656;2022-09-12T02:50:50;18.00;99.90
5494;DHT22;2769;49.864;8.656;2022-09-12T02:53:18;17.80;99.90
5494;DHT22;2769;49.864;8.656;2022-09-12T02:55:47;17.60;99.90
5494;DHT22;2769;49.864;8.656;2022-09-12T02:58:17;17.60;99.90
5494;DHT22;2769;49.864;8.656;2022-09-12T03:00:49;17.60;99.90
5494;DHT22;2769;49.864;8.656;2022-09-12T03:03:34;17.50;99.90
5494;DHT22;2769;49.864;8.656;2022-09-12T03:06:16;17.50;99.90
5494;DHT22;2769;49.864;8.656;2022-09-12T03:08:55;17.60;99.90
5494;DHT22;2769;49.864;8.656;2022-09-12T03:11:41;17.50;99.90
5494;DHT22;2769;49.864;8.656;2022-09-12T03:14:21;17.30;99.90
5494;DHT22;2769;49.864;8.656;2022-09-12T03:17:00;17.30;99.90
5494;DHT22;2769;49.864;8.656;2022-09-12T03:19:40;17.40;99.90
5494;DHT22;2769;49.864;8.656;2022-09-12T03:22:18;17.40;99.90
5494;DHT22;2769;49.864;8.656;2022-09-12T03:24:52;17.50;99.90
5494;DHT22;2769;49.864;8.656;2022-09-12T03:27:25;17.40;99.90
5494;DHT22;2769;49.864;8.656;2022-09-12T03:29:55;17.40;99.90
5494;DHT22;2769;49.864;8.656;2022-09-12T03:32:39;17.40;99.90
5494;DHT22;2769;49.864;8.656;2022-09-12T03:35:08;17.40;99.90
5494;DHT22;2769;49.864;8.656;2022-09-12T03:37:37;17.40;99.90
5494;DHT22;2769;49.864;8.656;2022-09-12T03:40:06;17.40;99.90
5494;DHT22;2769;49.864;8.656;2022-09-12T03:42:35;17.60;99.90
5494;DHT22;2769;49.864;8.656;2022-09-12T03:45:04;17.40;99.90
5494;DHT22;2769;49.864;8.656;2022-09-12T03:47:32;17.40;99.90
5494;DHT22;2769;49.864;8.656;2022-09-12T03:50:00;17.40;99.90
5494;DHT22;2769;49.864;8.656;2022-09-12T03:52:29;17.20;99.90
5494;DHT22;2769;49.864;8.656;2022-09-12T03:54:57;17.10;99.90
5494;DHT22;2769;49.864;8.656;2022-09-12T03:57:25;17.00;99.90
5494;DHT22;2769;49.864;8.656;2022-09-12T03:59:53;17.10;99.90
5494;DHT22;2769;49.864;8.656;2022-09-12T04:02:21;17.20;99.90
5494;DHT22;2769;49.864;8.656;2022-09-12T04:04:49;17.20;99.90
5494;DHT22;2769;49.864;8.656;2022-09-12T04:07:17;17.30;99.90
5494;DHT22;2769;49.864;8.656;2022-09-12T04:09:47;17.20;99.90
5494;DHT22;2769;49.864;8.656;2022-09-12T04:12:15;17.10;99.90
5494;DHT22;2769;49.864;8.656;2022-09-12T04:14:43;17.20;99.90
5494;DHT22;2769;49.864;8.656;2022-09-12T04:17:11;17.10;99.90
5494;DHT22;2769;49.864;8.656;2022-09-12T04:19:39;17.20;99.90
5494;DHT22;2769;49.864;8.656;2022-09-12T04:22:07;17.20;99.90
5494;DHT22;2769;49.864;8.656;2022-09-12T04:24:35;17.30;99.90
5494;DHT22;2769;49.864;8.656;2022-09-12T04:27:05;17.20;99.90
5494;DHT22;2769;49.864;8.656;2022-09-12T04:29:33;17.30;99.90
5494;DHT22;2769;49.864;8.656;2022-09-12T04:32:02;17.20;99.90
5494;DHT22;2769;49.864;8.656;2022-09-12T04:34:30;17.20;99.90
5494;DHT22;2769;49.864;8.656;2022-09-12T04:36:58;17.20;99.90
5494;DHT22;2769;49.864;8.656;2022-09-12T04:39:26;17.30;99.90
5494;DHT22;2769;49.864;8.656;2022-09-12T04:41:54;17.30;99.90
5494;DHT22;2769;49.864;8.656;2022-09-12T04:44:24;17.40;99.90
5494;DHT22;2769;49.864;8.656;2022-09-12T04:46:52;17.40;99.90
5494;DHT22;2769;49.864;8.656;2022-09-12T04:49:20;17.80;99.90
5494;DHT22;2769;49.864;8.656;2022-09-12T04:51:48;17.50;99.90
5494;DHT22;2769;49.864;8.656;2022-09-12T04:54:18;17.50;99.90
5494;DHT22;2769;49.864;8.656;2022-09-12T04:56:48;17.80;99.90
5494;DHT22;2769;49.864;8.656;2022-09-12T04:59:17;17.90;99.90
5494;DHT22;2769;49.864;8.656;2022-09-12T05:01:47;17.40;99.90
5494;DHT22;2769;49.864;8.656;2022-09-12T05:04:15;17.40;99.90
5494;DHT22;2769;49.864;8.656;2022-09-12T05:06:43;17.40;99.90
5494;DHT22;2769;49.864;8.656;2022-09-12T05:09:13;17.30;99.90
5494;DHT22;2769;49.864;8.656;2022-09-12T05:11:42;17.20;99.90
5494;DHT22;2769;49.864;8.656;2022-09-12T05:14:31;17.30;99.90
5494;DHT22;2769;49.864;8.656;2022-09-12T05:17:04;17.20;99.90
5494;DHT22;2769;49.864;8.656;2022-09-12T05:19:32;17.10;99.90
5494;DHT22;2769;49.864;8.656;2022-09-12T05:22:00;17.20;99.90
5494;DHT22;2769;49.864;8.656;2022-09-12T05:24:28;17.60;99.90
5494;DHT22;2769;49.864;8.656;2022-09-12T05:26:56;17.10;99.90
5494;DHT22;2769;49.864;8.656;2022-09-12T05:29:24;17.10;99.90
5494;DHT22;2769;49.864;8.656;2022-09-12T05:31:52;17.00;99.90
5494;DHT22;2769;49.864;8.656;2022-09-12T05:34:22;17.10;99.90
5494;DHT22;2769;49.864;8.656;2022-09-12T05:36:50;17.20;99.90
5494;DHT22;2769;49.864;8.656;2022-09-12T05:39:18;17.30;99.90
5494;DHT22;2769;49.864;8.656;2022-09-12T05:41:46;17.20;99.90
5494;DHT22;2769;49.864;8.656;2022-09-12T05:44:14;17.30;99.90
5494;DHT22;2769;49.864;8.656;2022-09-12T05:46:46;17.30;99.90
5494;DHT22;2769;49.864;8.656;2022-09-12T05:49:17;17.30;99.90
5494;DHT22;2769;49.864;8.656;2022-09-12T05:51:46;17.30;99.90
5494;DHT22;2769;49.864;8.656;2022-09-12T05:54:15;17.50;99.90
5494;DHT22;2769;49.864;8.656;2022-09-12T05:56:45;17.50;99.90
5494;DHT22;2769;49.864;8.656;2022-09-12T05:59:15;17.40;99.90
5494;DHT22;2769;49.864;8.656;2022-09-12T06:01:44;17.40;99.90
5494;DHT22;2769;49.864;8.656;2022-09-12T06:04:12;17.40;99.90
5494;DHT22;2769;49.864;8.656;2022-09-12T06:06:42;17.60;99.90
5494;DHT22;2769;49.864;8.656;2022-09-12T06:09:14;17.60;99.90
5494;DHT22;2769;49.864;8.656;2022-09-12T06:11:43;17.60;99.90
5494;DHT22;2769;49.864;8.656;2022-09-12T06:14:13;17.70;99.90
5494;DHT22;2769;49.864;8.656;2022-09-12T06:16:42;17.60;99.90
5494;DHT22;2769;49.864;8.656;2022-09-12T06:19:14;18.00;99.90
5494;DHT22;2769;49.864;8.656;2022-09-12T06:21:42;17.60;99.90
5494;DHT22;2769;49.864;8.656;2022-09-12T06:24:12;17.60;99.90
5494;DHT22;2769;49.864;8.656;2022-09-12T06:26:42;17.70;99.90
5494;DHT22;2769;49.864;8.656;2022-09-12T06:29:10;17.70;99.90
5494;DHT22;2769;49.864;8.656;2022-09-12T06:31:40;17.70;99.90
5494;DHT22;2769;49.864;8.656;2022-09-12T06:34:10;17.90;99.90
5494;DHT22;2769;49.864;8.656;2022-09-12T06:36:41;18.00;99.90
5494;DHT22;2769;49.864;8.656;2022-09-12T06:39:12;18.10;99.90
5494;DHT22;2769;49.864;8.656;2022-09-12T06:41:41;18.20;99.90
5494;DHT22;2769;49.864;8.656;2022-09-12T06:44:11;18.20;99.90
5494;DHT22;2769;49.864;8.656;2022-09-12T06:46:41;18.30;99.90
5494;DHT22;2769;49.864;8.656;2022-09-12T06:49:10;18.40;99.90
5494;DHT22;2769;49.864;8.656;2022-09-12T06:51:38;18.90;99.90
5494;DHT22;2769;49.864;8.656;2022-09-12T06:54:08;18.40;99.90
5494;DHT22;2769;49.864;8.656;2022-09-12T06:56:38;18.40;99.90
5494;DHT22;2769;49.864;8.656;2022-09-12T06:59:06;18.50;99.90
5494;DHT22;2769;49.864;8.656;2022-09-12T07:01:35;18.60;99.90
5494;DHT22;2769;49.864;8.656;2022-09-12T07:04:03;19.00;99.90
5494;DHT22;2769;49.864;8.656;2022-09-12T07:06:35;19.00;99.90
5494;DHT22;2769;49.864;8.656;2022-09-12T07:09:05;18.90;99.90
5494;DHT22;2769;49.864;8.656;2022-09-12T07:11:34;19.00;99.90
5494;DHT22;2769;49.864;8.656;2022-09-12T07:14:06;19.00;99.90
5494;DHT22;2769;49.864;8.656;2022-09-12T07:16:35;19.10;99.90
5494;DHT22;2769;49.864;8.656;2022-09-12T07:19:04;19.20;99.90
5494;DHT22;2769;49.864;8.656;2022-09-12T07:21:32;19.40;99.90
5494;DHT22;2769;49.864;8.656;2022-09-12T07:24:06;19.40;99.90
5494;DHT22;2769;49.864;8.656;2022-09-12T07:26:36;19.40;99.90
5494;DHT22;2769;49.864;8.656;2022-09-12T07:29:12;19.70;99.90
5494;DHT22;2769;49.864;8.656;2022-09-12T07:32:01;20.10;99.90
5494;DHT22;2769;49.864;8.656;2022-09-12T07:34:29;19.90;99.90
5494;DHT22;2769;49.864;8.656;2022-09-12T07:36:58;20.10;99.90
5494;DHT22;2769;49.864;8.656;2022-09-12T07:39:26;20.20;99.90
5494;DHT22;2769;49.864;8.656;2022-09-12T07:41:55;20.30;99.90
5494;DHT22;2769;49.864;8.656;2022-09-12T07:44:25;20.20;99.90
5494;DHT22;2769;49.864;8.656;2022-09-12T07:46:53;20.80;99.90
5494;DHT22;2769;49.864;8.656;2022-09-12T07:49:22;20.50;99.90
5494;DHT22;2769;49.864;8.656;2022-09-12T07:51:50;20.70;99.90
5494;DHT22;2769;49.864;8.656;2022-09-12T07:54:19;20.80;99.90
5494;DHT22;2769;49.864;8.656;2022-09-12T07:56:47;21.00;99.90
5494;DHT22;2769;49.864;8.656;2022-09-12T07:59:15;21.10;99.90
5494;DHT22;2769;49.864;8.656;2022-09-12T08:02:04;21.20;99.90
5494;DHT22;2769;49.864;8.656;2022-09-12T08:04:32;21.40;99.90
5494;DHT22;2769;49.864;8.656;2022-09-12T08:07:02;21.60;99.90
5494;DHT22;2769;49.864;8.656;2022-09-12T08:09:30;22.00;99.90
5494;DHT22;2769;49.864;8.656;2022-09-12T08:11:58;22.20;99.90
5494;DHT22;2769;49.864;8.656;2022-09-12T08:14:26;22.60;99.90
5494;DHT22;2769;49.864;8.656;2022-09-12T08:16:54;22.90;99.90
5494;DHT22;2769;49.864;8.656;2022-09-12T08:19:23;23.30;99.90
5494;DHT22;2769;49.864;8.656;2022-09-12T08:21:51;23.70;99.90
5494;DHT22;2769;49.864;8.656;2022-09-12T08:24:19;24.10;99.90
5494;DHT22;2769;49.864;8.656;2022-09-12T08:26:47;24.50;99.90
5494;DHT22;2769;49.864;8.656;2022-09-12T08:29:15;24.80;99.90
5494;DHT22;2769;49.864;8.656;2022-09-12T08:31:44;25.40;99.90
5494;DHT22;2769;49.864;8.656;2022-09-12T08:34:12;25.80;99.90
5494;DHT22;2769;49.864;8.656;2022-09-12T08:36:44;26.00;99.90
5494;DHT22;2769;49.864;8.656;2022-09-12T08:39:12;26.20;99.90
5494;DHT22;2769;49.864;8.656;2022-09-12T08:41:42;26.70;99.90
5494;DHT22;2769;49.864;8.656;2022-09-12T08:44:24;27.00;99.90
5494;DHT22;2769;49.864;8.656;2022-09-12T08:47:06;27.80;99.90
5494;DHT22;2769;49.864;8.656;2022-09-12T08:49:39;28.20;99.90
5494;DHT22;2769;49.864;8.656;2022-09-12T08:52:14;28.90;99.90
5494;DHT22;2769;49.864;8.656;2022-09-12T08:54:46;28.90;99.90
5494;DHT22;2769;49.864;8.656;2022-09-12T08:57:15;29.10;99.90
5494;DHT22;2769;49.864;8.656;2022-09-12T08:59:45;28.60;99.90
5494;DHT22;2769;49.864;8.656;2022-09-12T09:02:44;28.80;99.90
5494;DHT22;2769;49.864;8.656;2022-09-12T09:05:19;29.00;99.60
5494;DHT22;2769;49.864;8.656;2022-09-12T09:08:13;29.00;99.60
5494;DHT22;2769;49.864;8.656;2022-09-12T09:10:52;29.20;98.50
5494;DHT22;2769;49.864;8.656;2022-09-12T09:13:33;29.60;97.70
5494;DHT22;2769;49.864;8.656;2022-09-12T09:16:24;29.70;97.40
5494;DHT22;2769;49.864;8.656;2022-09-12T09:18:59;30.10;96.80
5494;DHT22;2769;49.864;8.656;2022-09-12T09:21:31;30.00;93.90
5494;DHT22;2769;49.864;8.656;2022-09-12T09:24:05;30.10;92.20
5494;DHT22;2769;49.864;8.656;2022-09-12T09:26:40;30.00;94.00
5494;DHT22;2769;49.864;8.656;2022-09-12T09:29:16;29.60;95.10
5494;DHT22;2769;49.864;8.656;2022-09-12T09:31:47;29.40;95.10
5494;DHT22;2769;49.864;8.656;2022-09-12T09:34:18;29.70;95.20
5494;DHT22;2769;49.864;8.656;2022-09-12T09:36:51;29.80;93.80
5494;DHT22;2769;49.864;8.656;2022-09-12T09:39:39;29.90;94.50
5494;DHT22;2769;49.864;8.656;2022-09-12T09:42:25;29.80;94.60
5494;DHT22;2769;49.864;8.656;2022-09-12T09:44:57;29.40;94.70
5494;DHT22;2769;49.864;8.656;2022-09-12T09:47:26;29.80;92.60
5494;DHT22;2769;49.864;8.656;2022-09-12T09:49:54;29.80;92.20
5494;DHT22;2769;49.864;8.656;2022-09-12T09:52:26;29.90;93.00
5494;DHT22;2769;49.864;8.656;2022-09-12T09:54:59;29.90;92.60
5494;DHT22;2769;49.864;8.656;2022-09-12T09:57:42;29.80;92.30
5494;DHT22;2769;49.864;8.656;2022-09-12T10:00:28;29.70;92.10
5494;DHT22;2769;49.864;8.656;2022-09-12T10:03:00;29.40;92.00
5494;DHT22;2769;49.864;8.656;2022-09-12T10:05:29;29.40;92.10
5494;DHT22;2769;49.864;8.656;2022-09-12T10:07:57;29.60;91.90
5494;DHT22;2769;49.864;8.656;2022-09-12T10:10:27;29.60;91.90
5494;DHT22;2769;49.864;8.656;2022-09-12T10:13:06;29.50;91.70
5494;DHT22;2769;49.864;8.656;2022-09-12T10:15:36;29.30;91.80
5494;DHT22;2769;49.864;8.656;2022-09-12T10:18:04;29.50;91.70
5494;DHT22;2769;49.864;8.656;2022-09-12T10:20:34;29.30;92.20
5494;DHT22;2769;49.864;8.656;2022-09-12T10:23:15;29.60;91.90
5494;DHT22;2769;49.864;8.656;2022-09-12T10:25:47;29.70;91.60
5494;DHT22;2769;49.864;8.656;2022-09-12T10:28:21;30.10;91.90
5494;DHT22;2769;49.864;8.656;2022-09-12T10:30:54;30.20;90.80
5494;DHT22;2769;49.864;8.656;2022-09-12T10:33:24;30.00;90.70
5494;DHT22;2769;49.864;8.656;2022-09-12T10:35:54;29.10;91.50
5494;DHT22;2769;49.864;8.656;2022-09-12T10:38:24;28.70;92.60
5494;DHT22;2769;49.864;8.656;2022-09-12T10:40:59;28.60;93.80
5494;DHT22;2769;49.864;8.656;2022-09-12T10:43:34;28.70;93.20
5494;DHT22;2769;49.864;8.656;2022-09-12T10:46:27;28.70;93.40
5494;DHT22;2769;49.864;8.656;2022-09-12T10:49:21;28.60;93.40
5494;DHT22;2769;49.864;8.656;2022-09-12T10:51:50;28.50;93.70
5494;DHT22;2769;49.864;8.656;2022-09-12T10:54:21;28.50;94.00
5494;DHT22;2769;49.864;8.656;2022-09-12T10:57:08;28.50;93.50
5494;DHT22;2769;49.864;8.656;2022-09-12T10:59:53;28.90;93.30
5494;DHT22;2769;49.864;8.656;2022-09-12T11:02:27;29.10;93.50
5494;DHT22;2769;49.864;8.656;2022-09-12T11:05:02;29.80;92.50
5494;DHT22;2769;49.864;8.656;2022-09-12T11:07:42;30.30;91.10
5494;DHT22;2769;49.864;8.656;2022-09-12T11:10:32;30.60;90.50
5494;DHT22;2769;49.864;8.656;2022-09-12T11:13:17;30.80;89.60
5494;DHT22;2769;49.864;8.656;2022-09-12T11:16:05;30.90;88.90
5494;DHT22;2769;49.864;8.656;2022-09-12T11:18:57;31.20;89.10
5494;DHT22;2769;49.864;8.656;2022-09-12T11:21:43;30.60;86.70
5494;DHT22;2769;49.864;8.656;2022-09-12T11:24:31;30.70;89.10
5494;DHT22;2769;49.864;8.656;2022-09-12T11:30:00;29.60;90.80
5494;DHT22;2769;49.864;8.656;2022-09-12T11:32:42;29.70;90.60
5494;DHT22;2769;49.864;8.656;2022-09-12T11:35:18;29.80;90.60
5494;DHT22;2769;49.864;8.656;2022-09-12T11:40:41;30.40;90.70
5494;DHT22;2769;49.864;8.656;2022-09-12T11:43:21;31.30;86.50
5494;DHT22;2769;49.864;8.656;2022-09-12T11:45:52;32.20;83.80
5494;DHT22;2769;49.864;8.656;2022-09-12T11:48:34;32.20;82.40
5494;DHT22;2769;49.864;8.656;2022-09-12T11:51:08;31.40;84.20
5494;DHT22;2769;49.864;8.656;2022-09-12T11:53:41;30.70;84.70
5494;DHT22;2769;49.864;8.656;2022-09-12T11:56:16;30.40;88.20
5494;DHT22;2769;49.864;8.656;2022-09-12T11:58:49;29.80;89.10
5494;DHT22;2769;49.864;8.656;2022-09-12T12:01:24;29.80;90.00
5494;DHT22;2769;49.864;8.656;2022-09-12T12:03:52;30.90;88.40
5494;DHT22;2769;49.864;8.656;2022-09-12T12:06:26;32.10;84.80
5494;DHT22;2769;49.864;8.656;2022-09-12T12:08:57;32.50;82.80
5494;DHT22;2769;49.864;8.656;2022-09-12T12:11:28;32.30;83.60
5494;DHT22;2769;49.864;8.656;2022-09-12T12:14:00;31.80;82.20
5494;DHT22;2769;49.864;8.656;2022-09-12T12:16:32;31.50;86.30
5494;DHT22;2769;49.864;8.656;2022-09-12T12:19:05;32.60;82.70
5494;DHT22;2769;49.864;8.656;2022-09-12T12:21:39;34.30;77.10
5494;DHT22;2769;49.864;8.656;2022-09-12T12:24:16;35.70;73.40
5494;DHT22;2769;49.864;8.656;2022-09-12T12:26:58;36.40;70.40
5494;DHT22;2769;49.864;8.656;2022-09-12T12:29:38;37.40;65.50
5494;DHT22;2769;49.864;8.656;2022-09-12T12:32:24;37.90;61.00
5494;DHT22;2769;49.864;8.656;2022-09-12T12:38:03;38.30;58.20
5494;DHT22;2769;49.864;8.656;2022-09-12T12:40:32;39.90;56.30
5494;DHT22;2769;49.864;8.656;2022-09-12T12:43:13;40.30;54.20
5494;DHT22;2769;49.864;8.656;2022-09-12T12:46:05;40.10;52.50
5494;DHT22;2769;49.864;8.656;2022-09-12T12:48:50;38.90;53.50
5494;DHT22;2769;49.864;8.656;2022-09-12T12:51:42;40.50;52.80
5494;DHT22;2769;49.864;8.656;2022-09-12T12:54:33;41.40;50.70
5494;DHT22;2769;49.864;8.656;2022-09-12T13:00:02;40.90;49.20
5494;DHT22;2769;49.864;8.656;2022-09-12T13:02:34;41.30;48.50
5494;DHT22;2769;49.864;8.656;2022-09-12T13:05:18;40.70;48.80
5494;DHT22;2769;49.864;8.656;2022-09-12T13:07:52;41.10;47.60
5494;DHT22;2769;49.864;8.656;2022-09-12T13:10:23;41.40;48.00
5494;DHT22;2769;49.864;8.656;2022-09-12T13:12:58;42.10;46.90
5494;DHT22;2769;49.864;8.656;2022-09-12T13:15:49;40.10;47.20
5494;DHT22;2769;49.864;8.656;2022-09-12T13:18:23;36.90;49.60
5494;DHT22;2769;49.864;8.656;2022-09-12T13:21:02;36.20;53.10
5494;DHT22;2769;49.864;8.656;2022-09-12T13:23:35;36.90;52.20
5494;DHT22;2769;49.864;8.656;2022-09-12T13:26:10;37.70;51.40
5494;DHT22;2769;49.864;8.656;2022-09-12T13:28:38;36.40;50.50
5494;DHT22;2769;49.864;8.656;2022-09-12T13:31:13;36.40;51.90
5494;DHT22;2769;49.864;8.656;2022-09-12T13:33:46;38.00;51.90
5494;DHT22;2769;49.864;8.656;2022-09-12T13:36:36;39.10;50.30
5494;DHT22;2769;49.864;8.656;2022-09-12T13:39:16;39.50;49.60
5494;DHT22;2769;49.864;8.656;2022-09-12T13:42:19;40.80;46.90
5494;DHT22;2769;49.864;8.656;2022-09-12T13:44:56;41.60;46.30
5494;DHT22;2769;49.864;8.656;2022-09-12T13:47:29;41.90;44.80
5494;DHT22;2769;49.864;8.656;2022-09-12T13:49:58;42.60;44.20
5494;DHT22;2769;49.864;8.656;2022-09-12T13:52:30;42.20;44.10
5494;DHT22;2769;49.864;8.656;2022-09-12T13:55:00;41.40;43.20
5494;DHT22;2769;49.864;8.656;2022-09-12T13:57:31;42.70;43.40
5494;DHT22;2769;49.864;8.656;2022-09-12T14:00:03;42.60;43.30
5494;DHT22;2769;49.864;8.656;2022-09-12T14:02:35;41.70;42.90
5494;DHT22;2769;49.864;8.656;2022-09-12T14:05:12;41.90;43.20
5494;DHT22;2769;49.864;8.656;2022-09-12T14:07:50;42.10;44.00
5494;DHT22;2769;49.864;8.656;2022-09-12T14:10:26;42.40;42.50
5494;DHT22;2769;49.864;8.656;2022-09-12T14:12:56;41.80;41.90
5494;DHT22;2769;49.864;8.656;2022-09-12T14:15:26;42.60;41.60
5494;DHT22;2769;49.864;8.656;2022-09-12T14:17:56;40.50;42.20
5494;DHT22;2769;49.864;8.656;2022-09-12T14:20:25;40.50;44.10
5494;DHT22;2769;49.864;8.656;2022-09-12T14:23:02;41.60;43.80
5494;DHT22;2769;49.864;8.656;2022-09-12T14:25:36;41.90;42.60
5494;DHT22;2769;49.864;8.656;2022-09-12T14:28:12;43.70;41.20
5494;DHT22;2769;49.864;8.656;2022-09-12T14:30:41;44.90;40.20
5494;DHT22;2769;49.864;8.656;2022-09-12T14:33:23;44.10;39.20
5494;DHT22;2769;49.864;8.656;2022-09-12T14:36:10;44.10;38.30
5494;DHT22;2769;49.864;8.656;2022-09-12T14:38:42;43.30;40.40
5494;DHT22;2769;49.864;8.656;2022-09-12T14:41:13;43.80;39.90
5494;DHT22;2769;49.864;8.656;2022-09-12T14:43:51;43.40;39.00
5494;DHT22;2769;49.864;8.656;2022-09-12T14:46:23;42.70;39.20
5494;DHT22;2769;49.864;8.656;2022-09-12T14:48:53;43.60;38.50
5494;DHT22;2769;49.864;8.656;2022-09-12T14:51:25;44.20;38.60
5494;DHT22;2769;49.864;8.656;2022-09-12T14:53:55;43.80;37.60
5494;DHT22;2769;49.864;8.656;2022-09-12T14:56:38;41.90;38.90
5494;DHT22;2769;49.864;8.656;2022-09-12T14:59:26;41.50;39.80
5494;DHT22;2769;49.864;8.656;2022-09-12T15:02:24;42.00;40.10
5494;DHT22;2769;49.864;8.656;2022-09-12T15:04:54;40.90;40.10
5494;DHT22;2769;49.864;8.656;2022-09-12T15:07:32;41.30;40.80
5494;DHT22;2769;49.864;8.656;2022-09-12T15:10:04;41.60;40.80
5494;DHT22;2769;49.864;8.656;2022-09-12T15:12:33;41.50;41.20
5494;DHT22;2769;49.864;8.656;2022-09-12T15:15:11;40.30;40.00
5494;DHT22;2769;49.864;8.656;2022-09-12T15:17:40;40.80;41.80
5494;DHT22;2769;49.864;8.656;2022-09-12T15:20:09;41.70;40.60
5494;DHT22;2769;49.864;8.656;2022-09-12T15:22:37;41.80;40.70
5494;DHT22;2769;49.864;8.656;2022-09-12T15:25:09;41.30;40.10
5494;DHT22;2769;49.864;8.656;2022-09-12T15:27:37;40.00;40.90
5494;DHT22;2769;49.864;8.656;2022-09-12T15:30:07;40.10;41.70
5494;DHT22;2769;49.864;8.656;2022-09-12T15:32:36;37.60;42.50
5494;DHT22;2769;49.864;8.656;2022-09-12T15:35:09;35.00;46.10
5494;DHT22;2769;49.864;8.656;2022-09-12T15:37:38;31.50;50.80
5494;DHT22;2769;49.864;8.656;2022-09-12T15:40:10;30.50;55.10
5494;DHT22;2769;49.864;8.656;2022-09-12T15:42:38;30.50;55.60
5494;DHT22;2769;49.864;8.656;2022-09-12T15:45:14;30.00;55.40
5494;DHT22;2769;49.864;8.656;2022-09-12T15:47:43;29.50;56.40
5494;DHT22;2769;49.864;8.656;2022-09-12T15:50:11;29.30;57.30
5494;DHT22;2769;49.864;8.656;2022-09-12T15:52:39;28.80;57.30
5494;DHT22;2769;49.864;8.656;2022-09-12T15:55:15;28.60;57.90
5494;DHT22;2769;49.864;8.656;2022-09-12T15:57:44;28.60;57.90
5494;DHT22;2769;49.864;8.656;2022-09-12T16:00:13;28.40;58.20
5494;DHT22;2769;49.864;8.656;2022-09-12T16:02:41;28.70;59.20
5494;DHT22;2769;49.864;8.656;2022-09-12T16:05:13;28.70;58.80
5494;DHT22;2769;49.864;8.656;2022-09-12T16:07:42;28.10;61.50
5494;DHT22;2769;49.864;8.656;2022-09-12T16:10:15;28.30;62.60
5494;DHT22;2769;49.864;8.656;2022-09-12T16:12:44;28.30;62.80
5494;DHT22;2769;49.864;8.656;2022-09-12T16:15:15;28.40;62.50
5494;DHT22;2769;49.864;8.656;2022-09-12T16:17:44;28.10;60.70
5494;DHT22;2769;49.864;8.656;2022-09-12T16:20:12;28.00;61.90
5494;DHT22;2769;49.864;8.656;2022-09-12T16:22:40;27.90;61.40
5494;DHT22;2769;49.864;8.656;2022-09-12T16:25:09;28.00;61.20
5494;DHT22;2769;49.864;8.656;2022-09-12T16:27:38;28.00;62.70
5494;DHT22;2769;49.864;8.656;2022-09-12T16:30:08;27.80;59.10
5494;DHT22;2769;49.864;8.656;2022-09-12T16:32:36;27.70;60.80
5494;DHT22;2769;49.864;8.656;2022-09-12T16:35:05;27.60;61.30
5494;DHT22;2769;49.864;8.656;2022-09-12T16:37:33;27.60;62.20
5494;DHT22;2769;49.864;8.656;2022-09-12T16:40:02;27.60;64.60
5494;DHT22;2769;49.864;8.656;2022-09-12T16:42:31;27.20;63.70
5494;DHT22;2769;49.864;8.656;2022-09-12T16:45:00;26.90;65.00
5494;DHT22;2769;49.864;8.656;2022-09-12T16:47:28;26.80;64.60
5494;DHT22;2769;49.864;8.656;2022-09-12T16:49:57;26.70;66.40
5494;DHT22;2769;49.864;8.656;2022-09-12T16:52:26;26.70;66.60
5494;DHT22;2769;49.864;8.656;2022-09-12T16:54:55;26.60;67.20